Time;durP1;ratioP1;P1;durP2;ratioP2;P2;SDS_P1;SDS_P2;PMS_P1;PMS_P2;Temp;Humidity;BMP_temperature;BMP_pressure;BME280_temperature;BME280_humidity;BME280_pressure;Samples;Min_cycle;Max_cycle;Signal;HPM_P1;HPM_P2
2021/12/15 00:00:59;;;;;;;68.07;25.17;;;;;;;;;;5092321;28;20036;-68
2021/12/15 00:03:25;;;;;;;69.15;23.83;;;;;;;;;;5095110;28;20027;-65
2021/12/15 00:05:51;;;;;;;72.95;24.35;;;;;;;;;;5094212;28;20024;-65
2021/12/15 00:08:17;;;;;;;70.60;24.38;;;;;;;;;;5093874;28;20042;-66
2021/12/15 00:10:44;;;;;;;64.38;24.25;;;;;;;;;;5093072;28;20393;-68
2021/12/15 00:13:13;;;;;;;65.60;23.42;;;;;;;;;;5093609;28;20115;-65
2021/12/15 00:15:39;;;;;;;63.55;24.67;;;;;;;;;;5092312;28;20028;-66
2021/12/15 00:18:05;;;;;;;67.00;24.35;;;;;;;;;;5092362;28;20027;-66
2021/12/15 00:20:31;;;;;;;71.60;24.23;;;;;;;;;;5092841;28;20435;-66
2021/12/15 00:22:56;;;;;;;60.83;22.25;;;;;;;;;;5093269;28;20043;-66
2021/12/15 00:25:25;;;;;;;59.75;22.52;;;;;;;;;;5092700;28;20032;-66
2021/12/15 00:27:51;;;;;;;58.70;22.02;;;;;;;;;;5091085;28;20127;-66
2021/12/15 00:30:16;;;;;;;59.15;22.58;;;;;;;;;;5092850;28;20456;-66
2021/12/15 00:32:42;;;;;;;71.50;24.73;;;;;;;;;;5092757;28;20052;-65
2021/12/15 00:35:09;;;;;;;64.15;22.92;;;;;;;;;;5092425;28;20036;-67
2021/12/15 00:37:35;;;;;;;59.10;21.85;;;;;;;;;;5083477;28;20040;-66
2021/12/15 00:40:01;;;;;;;63.80;22.83;;;;;;;;;;5090729;28;20035;-67
2021/12/15 00:42:26;;;;;;;62.50;23.33;;;;;;;;;;5092481;28;20035;-66
2021/12/15 00:44:52;;;;;;;68.03;23.90;;;;;;;;;;5092147;28;20322;-65
2021/12/15 00:47:18;;;;;;;65.70;23.00;;;;;;;;;;5090878;28;20031;-66
2021/12/15 00:49:44;;;;;;;60.67;22.60;;;;;;;;;;5093371;28;20487;-66
2021/12/15 00:52:10;;;;;;;56.47;21.80;;;;;;;;;;5089473;28;20119;-66
2021/12/15 00:54:37;;;;;;;53.10;21.02;;;;;;;;;;5093171;28;20111;-67
2021/12/15 00:57:03;;;;;;;51.67;21.88;;;;;;;;;;5090138;28;20027;-67
2021/12/15 00:59:28;;;;;;;49.72;20.33;;;;;;;;;;5091184;28;20055;-67
2021/12/15 01:01:54;;;;;;;50.20;19.80;;;;;;;;;;5088548;28;20429;-67
2021/12/15 01:04:21;;;;;;;49.53;19.65;;;;;;;;;;5077475;28;20440;-67
2021/12/15 01:06:55;;;;;;;45.25;19.38;;;;;;;;;;5090627;28;20123;-67
2021/12/15 01:09:31;;;;;;;46.90;18.63;;;;;;;;;;5091208;28;20028;-66
2021/12/15 01:20:16;;;;;;;40.75;18.48;;;;;;;;;;5081303;28;20097;-67
2021/12/15 01:22:47;;;;;;;44.92;19.08;;;;;;;;;;5080123;28;20020;-67
2021/12/15 01:25:20;;;;;;;39.38;17.92;;;;;;;;;;5092951;28;20032;-67
2021/12/15 01:27:46;;;;;;;44.65;18.45;;;;;;;;;;5090658;28;20464;-67
2021/12/15 01:30:14;;;;;;;41.20;17.38;;;;;;;;;;5090906;28;20028;-67
2021/12/15 01:32:39;;;;;;;38.00;17.00;;;;;;;;;;5087027;28;20063;-67
2021/12/15 01:35:06;;;;;;;35.85;17.45;;;;;;;;;;5092150;28;20477;-69
2021/12/15 01:37:32;;;;;;;41.33;17.70;;;;;;;;;;5092622;28;20106;-67
2021/12/15 01:39:57;;;;;;;35.45;17.15;;;;;;;;;;5091481;28;20146;-67
2021/12/15 01:42:30;;;;;;;44.22;17.27;;;;;;;;;;5089084;28;20024;-68
2021/12/15 01:47:40;;;;;;;35.88;16.13;;;;;;;;;;5091157;28;20046;-68
2021/12/15 01:50:07;;;;;;;34.83;15.93;;;;;;;;;;5092174;28;20099;-69
2021/12/15 01:52:39;;;;;;;35.15;15.70;;;;;;;;;;5090734;28;20473;-67
2021/12/15 01:55:14;;;;;;;39.08;16.08;;;;;;;;;;5092509;28;20028;-69
2021/12/15 01:57:41;;;;;;;37.40;15.82;;;;;;;;;;5090952;28;20208;-68
2021/12/15 02:00:15;;;;;;;31.92;15.63;;;;;;;;;;5090307;28;20424;-69
2021/12/15 02:02:41;;;;;;;34.28;15.77;;;;;;;;;;5091521;28;20035;-67
2021/12/15 02:05:07;;;;;;;33.13;14.95;;;;;;;;;;5088729;28;20028;-69
2021/12/15 02:07:33;;;;;;;27.75;15.00;;;;;;;;;;5090252;28;20370;-67
2021/12/15 02:12:31;;;;;;;30.60;14.48;;;;;;;;;;5089118;28;20815;-67
2021/12/15 02:14:57;;;;;;;29.63;14.57;;;;;;;;;;5089611;28;20047;-69
2021/12/15 02:17:22;;;;;;;29.60;13.93;;;;;;;;;;5089541;28;20031;-67
2021/12/15 02:19:48;;;;;;;29.42;14.23;;;;;;;;;;5087925;28;20408;-68
2021/12/15 02:22:13;;;;;;;26.30;13.60;;;;;;;;;;5089623;28;20036;-67
2021/12/15 02:24:41;;;;;;;30.38;15.02;;;;;;;;;;5090822;28;20039;-68
2021/12/15 02:27:06;;;;;;;31.98;15.98;;;;;;;;;;5090401;28;20059;-70
2021/12/15 02:29:38;;;;;;;36.53;17.33;;;;;;;;;;5089263;28;20059;-68
2021/12/15 02:37:44;;;;;;;33.67;16.27;;;;;;;;;;5091987;28;20042;-67
2021/12/15 02:40:13;;;;;;;34.72;15.63;;;;;;;;;;5090091;28;20071;-72
2021/12/15 02:42:45;;;;;;;37.15;17.13;;;;;;;;;;5091195;28;20054;-67
2021/12/15 02:45:13;;;;;;;33.45;17.05;;;;;;;;;;5088799;28;20032;-71
2021/12/15 02:47:38;;;;;;;35.20;16.27;;;;;;;;;;5089123;28;20024;-67
2021/12/15 02:50:11;;;;;;;34.67;17.23;;;;;;;;;;5088776;28;20101;-67
2021/12/15 02:52:38;;;;;;;40.30;18.58;;;;;;;;;;5091408;28;20371;-66
2021/12/15 02:55:05;;;;;;;33.05;16.65;;;;;;;;;;5089148;28;20066;-67
2021/12/15 02:57:31;;;;;;;34.58;16.75;;;;;;;;;;5090155;28;20024;-68
2021/12/15 03:00:04;;;;;;;36.75;17.90;;;;;;;;;;5090674;28;20104;-66
2021/12/15 03:05:27;;;;;;;37.65;17.25;;;;;;;;;;5090807;28;20534;-68
2021/12/15 03:08:10;;;;;;;39.22;18.45;;;;;;;;;;5091506;28;20032;-68
2021/12/15 03:16:08;;;;;;;38.13;18.42;;;;;;;;;;5088847;28;20046;-67
2021/12/15 03:18:35;;;;;;;40.67;18.92;;;;;;;;;;5089553;28;20444;-67
2021/12/15 03:21:14;;;;;;;39.85;18.58;;;;;;;;;;5089792;28;20074;-67
2021/12/15 03:23:49;;;;;;;36.42;16.75;;;;;;;;;;5086830;28;20055;-67
2021/12/15 03:26:19;;;;;;;37.50;17.15;;;;;;;;;;5089146;28;20036;-74
2021/12/15 03:39:32;;;;;;;41.92;16.92;;;;;;;;;;5082520;28;20032;-66
2021/12/15 03:42:02;;;;;;;38.83;16.50;;;;;;;;;;5089232;28;20424;-68
2021/12/15 03:44:29;;;;;;;36.10;16.93;;;;;;;;;;5088948;28;20042;-66
2021/12/15 03:46:55;;;;;;;40.67;18.10;;;;;;;;;;5083687;28;20016;-70
2021/12/15 03:49:21;;;;;;;35.97;15.48;;;;;;;;;;5104960;28;20035;-66
2021/12/15 03:51:47;;;;;;;36.75;14.82;;;;;;;;;;5090128;28;20119;-66
2021/12/15 03:54:13;;;;;;;42.67;17.50;;;;;;;;;;5093736;28;20500;-72
2021/12/15 03:56:43;;;;;;;43.15;18.00;;;;;;;;;;5093472;28;20028;-66
2021/12/15 03:59:08;;;;;;;46.97;19.00;;;;;;;;;;5094339;28;20036;-65
2021/12/15 04:01:35;;;;;;;32.30;13.80;;;;;;;;;;5083849;28;20039;-65
2021/12/15 04:04:01;;;;;;;34.60;15.13;;;;;;;;;;5081984;28;20059;-65
2021/12/15 04:06:33;;;;;;;43.47;18.63;;;;;;;;;;5081884;28;20032;-66
2021/12/15 04:08:59;;;;;;;48.25;19.98;;;;;;;;;;5091619;28;20032;-66
2021/12/15 04:11:26;;;;;;;47.13;19.15;;;;;;;;;;5087814;28;20052;-66
2021/12/15 04:13:52;;;;;;;54.65;20.90;;;;;;;;;;5088780;28;20067;-66
2021/12/15 04:19:03;;;;;;;51.00;19.73;;;;;;;;;;5090083;28;20032;-71
2021/12/15 04:21:29;;;;;;;52.22;20.52;;;;;;;;;;5089258;28;20028;-66
2021/12/15 04:23:57;;;;;;;56.92;20.88;;;;;;;;;;5089165;28;20454;-67
2021/12/15 04:26:24;;;;;;;43.83;18.23;;;;;;;;;;5087150;28;20036;-68
2021/12/15 04:28:50;;;;;;;54.33;20.88;;;;;;;;;;5087663;28;20036;-67
2021/12/15 04:31:21;;;;;;;61.38;21.30;;;;;;;;;;5089616;28;20028;-72
2021/12/15 04:34:07;;;;;;;53.33;18.52;;;;;;;;;;5088744;28;20059;-67
2021/12/15 04:36:46;;;;;;;61.17;21.58;;;;;;;;;;5093023;28;20032;-67
2021/12/15 04:39:15;;;;;;;71.28;23.30;;;;;;;;;;5093995;28;20477;-67
2021/12/15 04:41:46;;;;;;;52.25;18.20;;;;;;;;;;5090555;28;20035;-68
2021/12/15 04:44:13;;;;;;;59.22;20.95;;;;;;;;;;5092879;28;20502;-68
2021/12/15 04:46:45;;;;;;;64.35;22.83;;;;;;;;;;5093268;28;20512;-68
2021/12/15 04:49:14;;;;;;;61.00;21.77;;;;;;;;;;5093025;28;20035;-68
2021/12/15 04:51:40;;;;;;;55.65;20.17;;;;;;;;;;5093486;28;20032;-68
2021/12/15 04:54:06;;;;;;;70.00;22.95;;;;;;;;;;5093142;28;20042;-68
2021/12/15 04:56:31;;;;;;;64.13;21.25;;;;;;;;;;5091130;28;20078;-68
2021/12/15 04:58:57;;;;;;;75.25;23.70;;;;;;;;;;5093210;28;20476;-68
2021/12/15 05:01:24;;;;;;;74.95;23.20;;;;;;;;;;5091881;28;20389;-68
2021/12/15 05:03:50;;;;;;;74.68;23.42;;;;;;;;;;5092962;28;20051;-68
2021/12/15 05:06:15;;;;;;;66.70;22.00;;;;;;;;;;5093077;28;20032;-69
2021/12/15 05:08:41;;;;;;;68.35;23.40;;;;;;;;;;5093810;28;20078;-68
2021/12/15 05:11:08;;;;;;;79.45;24.05;;;;;;;;;;5093865;28;20141;-67
2021/12/15 05:13:34;;;;;;;75.13;22.67;;;;;;;;;;5093474;28;20493;-68
2021/12/15 05:16:02;;;;;;;72.22;23.85;;;;;;;;;;5092386;28;20056;-68
2021/12/15 05:18:28;;;;;;;73.20;23.08;;;;;;;;;;5093086;28;20077;-68
2021/12/15 05:20:54;;;;;;;78.65;24.85;;;;;;;;;;5092566;28;20032;-68
2021/12/15 05:23:21;;;;;;;64.22;23.00;;;;;;;;;;5091748;28;20179;-69
2021/12/15 05:25:48;;;;;;;73.80;23.88;;;;;;;;;;5094059;28;20028;-68
2021/12/15 05:28:14;;;;;;;81.55;24.30;;;;;;;;;;5091461;28;20036;-68
2021/12/15 05:30:40;;;;;;;81.47;23.60;;;;;;;;;;5090599;28;20149;-69
2021/12/15 05:33:06;;;;;;;84.28;23.48;;;;;;;;;;5088752;28;20068;-69
2021/12/15 05:35:33;;;;;;;79.78;23.63;;;;;;;;;;5091919;28;20514;-68
2021/12/15 05:38:00;;;;;;;67.10;23.50;;;;;;;;;;5093085;28;20534;-68
2021/12/15 05:40:27;;;;;;;70.25;22.60;;;;;;;;;;5092801;28;20031;-68
2021/12/15 05:42:57;;;;;;;66.00;22.45;;;;;;;;;;5089551;28;20466;-68
2021/12/15 05:45:24;;;;;;;65.95;22.65;;;;;;;;;;5091947;28;20392;-68
2021/12/15 05:47:51;;;;;;;51.55;19.00;;;;;;;;;;5092429;28;20055;-68
2021/12/15 05:50:17;;;;;;;76.88;23.67;;;;;;;;;;5093356;28;20032;-68
2021/12/15 05:52:43;;;;;;;63.40;20.48;;;;;;;;;;5092714;28;20047;-67
2021/12/15 05:55:11;;;;;;;70.50;22.80;;;;;;;;;;5093562;28;20032;-67
2021/12/15 05:57:36;;;;;;;70.35;23.40;;;;;;;;;;5092658;28;20107;-66
2021/12/15 06:00:09;;;;;;;54.63;18.55;;;;;;;;;;5093353;28;20426;-64
2021/12/15 06:02:35;;;;;;;65.82;21.35;;;;;;;;;;5082179;28;20036;-66
2021/12/15 06:05:01;;;;;;;54.60;19.00;;;;;;;;;;5090476;28;20024;-66
2021/12/15 06:07:26;;;;;;;65.72;21.65;;;;;;;;;;5091581;28;20099;-66
2021/12/15 06:09:51;;;;;;;65.45;21.55;;;;;;;;;;5092400;28;20028;-66
2021/12/15 06:12:17;;;;;;;55.60;17.63;;;;;;;;;;5092077;28;20534;-65
2021/12/15 06:14:43;;;;;;;65.88;21.67;;;;;;;;;;5091236;28;20023;-65
2021/12/15 06:17:10;;;;;;;65.22;22.63;;;;;;;;;;5091966;28;20067;-67
2021/12/15 06:19:36;;;;;;;65.60;21.88;;;;;;;;;;5088169;28;20024;-65
2021/12/15 06:22:04;;;;;;;63.50;19.40;;;;;;;;;;5072331;28;20043;-65
2021/12/15 06:24:30;;;;;;;53.05;20.20;;;;;;;;;;5070120;28;20505;-65
2021/12/15 06:27:02;;;;;;;60.58;21.00;;;;;;;;;;5072322;28;20076;-65
2021/12/15 06:29:29;;;;;;;64.97;20.92;;;;;;;;;;5071442;28;20067;-65
2021/12/15 06:31:55;;;;;;;59.13;22.02;;;;;;;;;;5081890;28;20063;-65
2021/12/15 06:34:21;;;;;;;59.90;19.65;;;;;;;;;;5081712;28;20024;-66
2021/12/15 06:36:46;;;;;;;61.60;20.98;;;;;;;;;;5090260;28;20028;-65
2021/12/15 06:39:12;;;;;;;62.05;21.88;;;;;;;;;;5091420;28;20031;-65
2021/12/15 06:41:38;;;;;;;64.28;21.48;;;;;;;;;;5073010;28;20020;-64
2021/12/15 06:44:04;;;;;;;64.38;21.05;;;;;;;;;;5092356;28;20039;-65
2021/12/15 06:47:03;;;;;;;66.32;21.10;;;;;;;;;;5089469;28;20036;-64
2021/12/15 07:00:24;;;;;;;55.70;18.65;;;;;;;;;;5091991;28;20389;-68
2021/12/15 07:02:50;;;;;;;51.95;19.55;;;;;;;;;;5091906;28;20030;-67
2021/12/15 07:05:15;;;;;;;49.08;17.27;;;;;;;;;;5090353;28;20357;-69
2021/12/15 07:07:44;;;;;;;54.25;19.25;;;;;;;;;;5089516;28;20024;-68
2021/12/15 07:10:12;;;;;;;58.83;19.35;;;;;;;;;;5091267;28;20400;-68
2021/12/15 07:12:38;;;;;;;56.05;19.15;;;;;;;;;;5090745;28;20542;-69
2021/12/15 07:15:08;;;;;;;62.72;21.00;;;;;;;;;;5090384;28;20044;-69
2021/12/15 07:17:35;;;;;;;61.35;20.23;;;;;;;;;;5090727;28;20182;-67
2021/12/15 07:22:35;;;;;;;62.72;20.77;;;;;;;;;;5090760;28;20067;-68
2021/12/15 07:25:02;;;;;;;61.17;19.75;;;;;;;;;;5090363;28;20093;-69
2021/12/15 07:27:28;;;;;;;55.35;19.67;;;;;;;;;;5090776;28;20371;-68
2021/12/15 07:29:53;;;;;;;55.92;19.33;;;;;;;;;;5091288;28;20053;-68
2021/12/15 07:32:19;;;;;;;65.15;20.17;;;;;;;;;;5089950;28;20032;-69
2021/12/15 07:34:44;;;;;;;58.85;19.70;;;;;;;;;;5089610;28;20016;-69
2021/12/15 07:37:10;;;;;;;62.35;19.67;;;;;;;;;;5091599;28;20032;-68
2021/12/15 07:39:37;;;;;;;63.03;20.80;;;;;;;;;;5090071;28;20516;-69
2021/12/15 07:42:10;;;;;;;66.82;20.88;;;;;;;;;;5091388;28;20039;-68
2021/12/15 07:44:36;;;;;;;57.80;20.13;;;;;;;;;;5089504;28;20028;-68
2021/12/15 07:47:03;;;;;;;63.92;21.17;;;;;;;;;;5091231;28;20083;-67
2021/12/15 07:49:29;;;;;;;50.60;18.30;;;;;;;;;;5088539;28;20035;-67
2021/12/15 07:52:04;;;;;;;55.72;19.02;;;;;;;;;;5091445;28;20040;-70
2021/12/15 07:54:36;;;;;;;48.65;16.65;;;;;;;;;;5090997;28;20032;-67
2021/12/15 07:57:05;;;;;;;47.25;17.00;;;;;;;;;;5090549;28;20027;-69
2021/12/15 07:59:30;;;;;;;56.42;19.17;;;;;;;;;;5088812;28;20466;-65
2021/12/15 08:01:56;;;;;;;61.10;19.50;;;;;;;;;;5090988;28;20058;-68
2021/12/15 08:04:21;;;;;;;56.00;19.42;;;;;;;;;;5090738;28;20055;-69
2021/12/15 08:06:47;;;;;;;59.28;20.27;;;;;;;;;;5092101;28;20024;-69
2021/12/15 08:09:13;;;;;;;53.05;19.05;;;;;;;;;;5075473;28;20032;-69
2021/12/15 08:11:40;;;;;;;56.42;19.40;;;;;;;;;;5078930;28;20468;-69
2021/12/15 08:14:06;;;;;;;56.75;19.67;;;;;;;;;;5094562;28;20396;-70
2021/12/15 08:16:32;;;;;;;52.47;17.42;;;;;;;;;;5094600;28;20062;-70
2021/12/15 08:18:58;;;;;;;50.05;19.00;;;;;;;;;;5094998;28;20028;-69
2021/12/15 08:21:23;;;;;;;53.63;19.50;;;;;;;;;;5094694;28;20097;-69
2021/12/15 08:23:48;;;;;;;54.67;19.52;;;;;;;;;;5094263;28;20155;-69
2021/12/15 08:26:14;;;;;;;52.60;18.30;;;;;;;;;;5094826;28;20028;-67
2021/12/15 08:28:39;;;;;;;56.63;19.48;;;;;;;;;;5093756;28;20035;-70
2021/12/15 08:31:06;;;;;;;54.85;19.67;;;;;;;;;;5094661;28;20458;-68
2021/12/15 08:33:31;;;;;;;57.50;19.77;;;;;;;;;;5085558;28;20032;-67
2021/12/15 08:36:01;;;;;;;51.28;18.35;;;;;;;;;;5094603;28;20028;-69
2021/12/15 08:38:29;;;;;;;62.35;19.88;;;;;;;;;;5094257;28;20495;-69
2021/12/15 08:40:56;;;;;;;65.45;21.25;;;;;;;;;;5094229;28;20028;-66
2021/12/15 08:43:23;;;;;;;56.03;18.90;;;;;;;;;;5094528;28;20058;-69
2021/12/15 08:45:56;;;;;;;60.08;20.35;;;;;;;;;;5092233;28;20191;-69
2021/12/15 08:48:22;;;;;;;59.83;20.90;;;;;;;;;;5092699;28;20032;-67
2021/12/15 08:50:47;;;;;;;57.33;19.73;;;;;;;;;;5081086;28;20028;-69
2021/12/15 08:53:13;;;;;;;59.53;19.50;;;;;;;;;;5083181;28;20245;-69
2021/12/15 08:55:43;;;;;;;64.85;20.30;;;;;;;;;;5091260;28;20114;-69
2021/12/15 08:58:12;;;;;;;61.25;20.13;;;;;;;;;;5093305;28;20063;-66
2021/12/15 09:00:40;;;;;;;70.55;22.73;;;;;;;;;;5091432;28;20040;-68
2021/12/15 09:03:05;;;;;;;63.42;22.67;;;;;;;;;;5089421;28;20044;-69
2021/12/15 09:05:31;;;;;;;70.75;23.52;;;;;;;;;;5093304;28;20028;-69
2021/12/15 09:07:58;;;;;;;76.38;22.90;;;;;;;;;;5093966;28;20047;-68
2021/12/15 09:10:27;;;;;;;72.38;23.30;;;;;;;;;;5093641;28;20036;-69
2021/12/15 09:12:52;;;;;;;65.05;23.33;;;;;;;;;;5092843;28;20394;-70
2021/12/15 09:15:18;;;;;;;73.53;23.48;;;;;;;;;;5092329;28;20043;-71
2021/12/15 09:17:44;;;;;;;73.28;22.48;;;;;;;;;;5092188;28;20078;-69
2021/12/15 09:20:13;;;;;;;80.50;25.55;;;;;;;;;;5093755;28;20032;-69
2021/12/15 09:22:39;;;;;;;67.60;22.98;;;;;;;;;;5093079;28;20082;-70
2021/12/15 09:25:10;;;;;;;71.35;22.58;;;;;;;;;;5093094;28;20040;-70
2021/12/15 09:27:37;;;;;;;73.45;23.98;;;;;;;;;;5093034;28;20111;-70
2021/12/15 09:30:08;;;;;;;71.05;23.58;;;;;;;;;;5093759;28;20047;-70
2021/12/15 09:32:34;;;;;;;64.88;21.63;;;;;;;;;;5091951;28;20111;-71
2021/12/15 09:34:59;;;;;;;69.07;23.48;;;;;;;;;;5092289;28;20115;-69
2021/12/15 09:37:25;;;;;;;65.68;22.13;;;;;;;;;;5091601;28;20135;-69
2021/12/15 09:39:50;;;;;;;65.47;23.25;;;;;;;;;;5090845;28;20510;-70
2021/12/15 09:42:20;;;;;;;65.60;22.92;;;;;;;;;;5093711;28;20081;-66
2021/12/15 09:44:49;;;;;;;63.65;21.60;;;;;;;;;;5089986;28;20038;-67
2021/12/15 09:47:35;;;;;;;63.55;22.15;;;;;;;;;;5093383;28;20028;-67
2021/12/15 10:03:56;;;;;;;54.60;21.35;;;;;;;;;;5092053;28;20043;-69
2021/12/15 10:06:30;;;;;;;46.85;17.20;;;;;;;;;;5091870;28;20024;-66
2021/12/15 10:11:50;;;;;;;49.55;19.50;;;;;;;;;;5091386;28;20398;-70
2021/12/15 10:19:55;;;;;;;56.75;22.70;;;;;;;;;;5091587;28;20118;-69
2021/12/15 10:22:42;;;;;;;45.15;17.80;;;;;;;;;;5092624;28;20115;-67
2021/12/15 10:25:17;;;;;;;54.00;21.23;;;;;;;;;;5091152;28;20043;-68
2021/12/15 10:28:18;;;;;;;54.00;19.77;;;;;;;;;;5088918;28;20466;-67
2021/12/15 10:31:04;;;;;;;56.13;21.40;;;;;;;;;;5087618;28;20050;-66
2021/12/15 10:33:36;;;;;;;49.85;20.17;;;;;;;;;;5090783;28;20081;-67
2021/12/15 10:36:06;;;;;;;48.80;20.20;;;;;;;;;;5091364;28;20035;-68
2021/12/15 10:38:44;;;;;;;51.95;18.88;;;;;;;;;;5088146;28;20028;-67
2021/12/15 10:41:15;;;;;;;49.70;20.73;;;;;;;;;;5090618;28;20081;-67
2021/12/15 10:43:53;;;;;;;47.90;20.08;;;;;;;;;;5089870;28;20115;-67
2021/12/15 10:46:40;;;;;;;54.58;20.65;;;;;;;;;;5103482;28;20036;-70
2021/12/15 10:49:13;;;;;;;53.78;21.00;;;;;;;;;;5092458;28;20043;-71
2021/12/15 10:51:57;;;;;;;50.30;19.80;;;;;;;;;;5090832;28;20409;-71
2021/12/15 10:54:30;;;;;;;50.00;20.33;;;;;;;;;;5091902;28;20035;-73
2021/12/15 10:57:12;;;;;;;56.08;21.13;;;;;;;;;;5090154;28;20031;-70
2021/12/15 10:59:43;;;;;;;51.38;21.17;;;;;;;;;;5071071;28;20032;-68
2021/12/15 11:02:23;;;;;;;62.25;22.65;;;;;;;;;;5073481;28;20043;-72
2021/12/15 11:04:54;;;;;;;54.53;20.77;;;;;;;;;;5076983;28;20032;-71
2021/12/15 11:07:39;;;;;;;58.35;22.30;;;;;;;;;;5075246;28;20031;-72
2021/12/15 11:10:10;;;;;;;52.67;21.73;;;;;;;;;;5073348;28;20163;-74
2021/12/15 11:12:46;;;;;;;60.38;21.95;;;;;;;;;;5090195;28;20048;-71
2021/12/15 11:15:26;;;;;;;61.78;22.98;;;;;;;;;;5090204;28;20466;-73
2021/12/15 11:18:01;;;;;;;63.70;23.17;;;;;;;;;;5090488;28;20028;-71
2021/12/15 11:20:33;;;;;;;69.53;23.40;;;;;;;;;;5092400;28;20028;-69
2021/12/15 11:23:07;;;;;;;62.70;23.20;;;;;;;;;;5090488;28;20036;-69
2021/12/15 11:25:37;;;;;;;62.33;23.70;;;;;;;;;;5088714;28;20416;-70
2021/12/15 11:28:08;;;;;;;63.40;22.83;;;;;;;;;;5091206;28;20036;-68
2021/12/15 11:30:41;;;;;;;62.13;22.02;;;;;;;;;;5090955;28;20055;-69
2021/12/15 11:33:42;;;;;;;55.92;19.83;;;;;;;;;;5084997;28;20481;-69
2021/12/15 11:36:13;;;;;;;60.13;22.85;;;;;;;;;;5068508;28;20039;-69
2021/12/15 11:39:15;;;;;;;59.67;22.40;;;;;;;;;;5070614;28;20032;-71
2021/12/15 11:41:49;;;;;;;53.55;21.75;;;;;;;;;;5087388;28;20052;-69
2021/12/15 11:44:20;;;;;;;56.53;21.65;;;;;;;;;;5095614;28;20357;-70
2021/12/15 11:46:51;;;;;;;59.90;22.50;;;;;;;;;;5093160;28;20039;-69
2021/12/15 11:49:19;;;;;;;55.90;21.17;;;;;;;;;;5094039;28;20031;-71
2021/12/15 11:51:49;;;;;;;62.92;23.83;;;;;;;;;;5093177;28;20044;-74
2021/12/15 11:54:25;;;;;;;56.65;22.30;;;;;;;;;;5095146;28;20124;-72
2021/12/15 11:56:52;;;;;;;57.10;21.80;;;;;;;;;;5093166;28;20089;-72
2021/12/15 11:59:22;;;;;;;56.53;21.40;;;;;;;;;;5095381;28;20380;-72
2021/12/15 12:01:53;;;;;;;66.43;21.60;;;;;;;;;;5094208;28;20032;-73
2021/12/15 12:04:41;;;;;;;62.92;23.40;;;;;;;;;;5095094;28;20323;-72
2021/12/15 12:07:26;;;;;;;60.03;24.08;;;;;;;;;;5094476;28;20043;-71
2021/12/15 12:09:58;;;;;;;54.53;22.50;;;;;;;;;;5093227;28;20073;-73
2021/12/15 12:12:28;;;;;;;54.83;22.77;;;;;;;;;;5094800;28;20043;-74
2021/12/15 12:14:54;;;;;;;55.92;22.52;;;;;;;;;;5074248;28;20210;-72
2021/12/15 12:17:24;;;;;;;57.47;21.42;;;;;;;;;;5087811;28;20035;-70
2021/12/15 12:19:59;;;;;;;56.15;22.58;;;;;;;;;;5093766;28;20028;-72
2021/12/15 12:22:31;;;;;;;52.55;22.90;;;;;;;;;;5094883;28;20106;-69
2021/12/15 12:25:00;;;;;;;57.38;22.70;;;;;;;;;;5093896;28;20059;-70
2021/12/15 12:27:29;;;;;;;53.25;22.27;;;;;;;;;;5095099;28;20060;-71
2021/12/15 12:29:57;;;;;;;57.63;22.80;;;;;;;;;;5093905;28;20028;-70
2021/12/15 12:32:23;;;;;;;56.30;23.13;;;;;;;;;;5094481;28;20063;-71
2021/12/15 12:34:50;;;;;;;54.28;22.75;;;;;;;;;;5092617;28;20032;-71
2021/12/15 12:37:16;;;;;;;52.95;22.02;;;;;;;;;;5094628;28;20461;-71
2021/12/15 12:39:45;;;;;;;52.58;23.65;;;;;;;;;;5093549;28;20028;-75
2021/12/15 12:42:27;;;;;;;50.88;23.05;;;;;;;;;;5094400;28;20070;-71
2021/12/15 12:45:19;;;;;;;59.83;22.58;;;;;;;;;;5072327;28;20043;-70
2021/12/15 12:48:03;;;;;;;49.70;22.88;;;;;;;;;;5076768;28;20039;-71
2021/12/15 13:01:35;;;;;;;51.38;21.20;;;;;;;;;;5093689;28;20035;-71
2021/12/15 13:04:10;;;;;;;50.85;23.95;;;;;;;;;;5093230;28;20102;-69
2021/12/15 13:06:42;;;;;;;51.50;22.73;;;;;;;;;;5084101;28;20107;-71
2021/12/15 13:09:11;;;;;;;49.90;23.13;;;;;;;;;;5093712;28;20031;-70
2021/12/15 13:11:39;;;;;;;51.80;22.52;;;;;;;;;;5093634;28;20048;-69
2021/12/15 13:14:14;;;;;;;51.10;23.33;;;;;;;;;;5091801;28;20535;-69
2021/12/15 13:16:58;;;;;;;51.47;22.23;;;;;;;;;;5090512;28;20445;-76
2021/12/15 13:19:33;;;;;;;52.78;23.98;;;;;;;;;;5092766;28;20103;-69
2021/12/15 13:31:03;;;;;;;50.00;22.40;;;;;;;;;;5093173;28;20089;-69
2021/12/15 13:33:35;;;;;;;49.92;22.35;;;;;;;;;;5087878;28;20032;-69
2021/12/15 13:36:20;;;;;;;50.42;21.95;;;;;;;;;;5089296;28;20090;-71
2021/12/15 13:38:56;;;;;;;47.78;22.05;;;;;;;;;;5081555;28;20055;-75
2021/12/15 13:44:30;;;;;;;52.28;21.80;;;;;;;;;;5091754;28;20047;-69
2021/12/15 13:47:07;;;;;;;50.97;22.10;;;;;;;;;;5090982;28;20036;-70
2021/12/15 13:49:43;;;;;;;47.45;21.55;;;;;;;;;;5093255;28;20479;-69
2021/12/15 13:52:31;;;;;;;52.15;22.55;;;;;;;;;;5074917;28;20032;-69
2021/12/15 13:55:26;;;;;;;52.50;22.95;;;;;;;;;;5091948;28;20034;-70
2021/12/15 13:58:09;;;;;;;50.17;22.75;;;;;;;;;;5090977;28;20107;-71
2021/12/15 14:00:57;;;;;;;53.50;23.02;;;;;;;;;;5093088;28;20043;-67
2021/12/15 14:03:48;;;;;;;61.47;24.80;;;;;;;;;;5083677;28;20039;-68
2021/12/15 14:06:22;;;;;;;57.05;23.15;;;;;;;;;;5089987;28;20127;-66
2021/12/15 14:08:56;;;;;;;50.72;22.20;;;;;;;;;;5092331;28;20032;-67
2021/12/15 14:11:32;;;;;;;50.28;21.88;;;;;;;;;;5070779;28;20135;-68
2021/12/15 14:14:03;;;;;;;52.28;22.73;;;;;;;;;;5086126;28;20436;-69
2021/12/15 14:16:39;;;;;;;48.40;21.63;;;;;;;;;;5092923;28;20024;-67
2021/12/15 14:19:08;;;;;;;48.33;22.40;;;;;;;;;;5091651;28;20093;-67
2021/12/15 14:21:36;;;;;;;48.10;23.02;;;;;;;;;;5072588;28;20028;-68
2021/12/15 14:24:03;;;;;;;55.08;22.90;;;;;;;;;;5072439;28;20065;-69
2021/12/15 14:26:32;;;;;;;52.80;24.38;;;;;;;;;;5090893;28;20055;-69
2021/12/15 14:29:00;;;;;;;46.50;21.73;;;;;;;;;;5091632;28;20076;-67
2021/12/15 14:31:31;;;;;;;45.67;20.95;;;;;;;;;;5071900;28;20481;-73
2021/12/15 14:34:07;;;;;;;47.60;22.17;;;;;;;;;;5086206;28;20043;-68
2021/12/15 14:36:37;;;;;;;50.47;22.45;;;;;;;;;;5092133;28;20028;-68
2021/12/15 14:39:13;;;;;;;40.97;19.80;;;;;;;;;;5078308;28;20059;-67
2021/12/15 14:41:41;;;;;;;46.78;21.67;;;;;;;;;;5089254;28;20047;-68
2021/12/15 14:44:16;;;;;;;45.47;20.17;;;;;;;;;;5090969;28;20032;-66
2021/12/15 14:46:41;;;;;;;45.88;20.70;;;;;;;;;;5091421;28;20031;-67
2021/12/15 14:49:17;;;;;;;46.83;22.50;;;;;;;;;;5089452;28;20032;-67
2021/12/15 14:51:46;;;;;;;46.08;21.58;;;;;;;;;;5081042;28;20035;-66
2021/12/15 14:54:14;;;;;;;48.22;22.15;;;;;;;;;;5090817;28;20028;-66
2021/12/15 14:57:04;;;;;;;44.63;20.30;;;;;;;;;;5091452;28;20028;-68
2021/12/15 14:59:39;;;;;;;42.90;20.13;;;;;;;;;;5091014;28;20042;-66
2021/12/15 15:02:17;;;;;;;45.45;19.73;;;;;;;;;;5092463;28;20074;-65
2021/12/15 15:04:47;;;;;;;44.95;20.33;;;;;;;;;;5093333;28;20032;-65
2021/12/15 15:07:18;;;;;;;55.47;21.85;;;;;;;;;;5091370;28;20134;-65
2021/12/15 15:09:50;;;;;;;44.92;18.95;;;;;;;;;;5091671;28;20043;-65
2021/12/15 15:12:24;;;;;;;41.75;18.45;;;;;;;;;;5091537;28;20069;-65
2021/12/15 15:15:14;;;;;;;43.15;19.10;;;;;;;;;;5090823;28;20024;-68
2021/12/15 15:17:55;;;;;;;43.78;19.23;;;;;;;;;;5090610;28;20040;-64
2021/12/15 15:20:24;;;;;;;42.07;18.53;;;;;;;;;;5077874;28;20078;-64
2021/12/15 15:22:53;;;;;;;45.25;20.45;;;;;;;;;;5072663;28;20020;-68
2021/12/15 15:25:22;;;;;;;41.67;19.75;;;;;;;;;;5090339;28;20384;-64
2021/12/15 15:27:55;;;;;;;43.40;18.55;;;;;;;;;;5090237;28;20031;-68
2021/12/15 15:30:24;;;;;;;44.92;19.83;;;;;;;;;;5090735;28;20028;-65
2021/12/15 15:32:53;;;;;;;37.83;19.20;;;;;;;;;;5082474;28;20030;-70
2021/12/15 15:35:22;;;;;;;48.42;20.23;;;;;;;;;;5101625;28;20029;-66
2021/12/15 15:37:48;;;;;;;46.47;20.40;;;;;;;;;;5085570;28;20115;-68
2021/12/15 15:40:25;;;;;;;49.17;22.10;;;;;;;;;;5090101;28;20028;-67
2021/12/15 15:43:01;;;;;;;45.22;19.75;;;;;;;;;;5090744;28;20454;-68
2021/12/15 15:45:35;;;;;;;47.17;20.48;;;;;;;;;;5088983;28;20032;-66
2021/12/15 15:48:04;;;;;;;43.67;19.17;;;;;;;;;;5086102;28;20028;-66
2021/12/15 15:50:30;;;;;;;46.40;20.25;;;;;;;;;;5090542;28;20032;-66
2021/12/15 15:52:58;;;;;;;42.70;20.05;;;;;;;;;;5087763;28;20051;-66
2021/12/15 15:55:25;;;;;;;42.50;19.80;;;;;;;;;;5089484;28;20028;-66
2021/12/15 15:57:54;;;;;;;47.38;19.77;;;;;;;;;;5089322;28;20077;-70
2021/12/15 16:00:22;;;;;;;43.45;20.60;;;;;;;;;;5089443;28;20028;-66
2021/12/15 16:02:48;;;;;;;42.45;20.23;;;;;;;;;;5088344;28;20048;-69
2021/12/15 16:05:15;;;;;;;44.25;19.98;;;;;;;;;;5088409;28;20085;-66
2021/12/15 16:07:41;;;;;;;45.50;20.58;;;;;;;;;;5087843;28;20050;-67
2021/12/15 16:10:09;;;;;;;44.75;20.27;;;;;;;;;;5088655;28;20101;-66
2021/12/15 16:12:36;;;;;;;45.22;21.20;;;;;;;;;;5088807;28;20870;-66